sensor_id;sensor_type;location;lat;lon;timestamp;temperature;humidity
52575;DHT22;38468;48.114;-1.684;2023-12-07T00:00:36;6.60;80.30
52575;DHT22;38468;48.114;-1.684;2023-12-07T00:02:37;6.60;80.30
52575;DHT22;38468;48.114;-1.684;2023-12-07T00:04:37;6.60;80.20
52575;DHT22;38468;48.114;-1.684;2023-12-07T00:06:38;6.60;80.20
52575;DHT22;38468;48.114;-1.684;2023-12-07T00:08:39;6.60;80.20
52575;DHT22;38468;48.114;-1.684;2023-12-07T00:10:39;6.60;80.20
52575;DHT22;38468;48.114;-1.684;2023-12-07T00:12:40;6.60;80.20
52575;DHT22;38468;48.114;-1.684;2023-12-07T00:14:40;6.60;80.20
52575;DHT22;38468;48.114;-1.684;2023-12-07T00:16:42;6.60;80.20
52575;DHT22;38468;48.114;-1.684;2023-12-07T00:18:43;6.60;80.20
52575;DHT22;38468;48.114;-1.684;2023-12-07T00:20:43;6.60;80.20
52575;DHT22;38468;48.114;-1.684;2023-12-07T00:22:44;6.60;80.20
52575;DHT22;38468;48.114;-1.684;2023-12-07T00:24:44;6.60;80.20
52575;DHT22;38468;48.114;-1.684;2023-12-07T00:26:45;6.60;80.20
52575;DHT22;38468;48.114;-1.684;2023-12-07T00:28:46;6.60;80.20
52575;DHT22;38468;48.114;-1.684;2023-12-07T00:30:46;6.60;80.20
52575;DHT22;38468;48.114;-1.684;2023-12-07T00:32:47;6.50;80.20
52575;DHT22;38468;48.114;-1.684;2023-12-07T00:34:47;6.50;80.20
52575;DHT22;38468;48.114;-1.684;2023-12-07T00:36:49;6.50;80.20
52575;DHT22;38468;48.114;-1.684;2023-12-07T00:38:50;6.60;80.10
52575;DHT22;38468;48.114;-1.684;2023-12-07T00:40:50;6.60;80.10
52575;DHT22;38468;48.114;-1.684;2023-12-07T00:42:51;6.70;80.10
52575;DHT22;38468;48.114;-1.684;2023-12-07T00:44:52;6.70;80.10
52575;DHT22;38468;48.114;-1.684;2023-12-07T00:46:52;6.70;80.00
52575;DHT22;38468;48.114;-1.684;2023-12-07T00:48:53;6.70;79.90
52575;DHT22;38468;48.114;-1.684;2023-12-07T00:50:53;6.60;79.80
52575;DHT22;38468;48.114;-1.684;2023-12-07T00:52:54;6.60;79.80
52575;DHT22;38468;48.114;-1.684;2023-12-07T00:54:55;6.60;79.80
52575;DHT22;38468;48.114;-1.684;2023-12-07T00:56:56;6.60;79.80
52575;DHT22;38468;48.114;-1.684;2023-12-07T00:58:58;6.60;79.70
52575;DHT22;38468;48.114;-1.684;2023-12-07T01:00:58;6.60;79.80
52575;DHT22;38468;48.114;-1.684;2023-12-07T01:02:59;6.70;79.80
52575;DHT22;38468;48.114;-1.684;2023-12-07T01:05:00;6.70;79.80
52575;DHT22;38468;48.114;-1.684;2023-12-07T01:07:01;6.70;79.80
52575;DHT22;38468;48.114;-1.684;2023-12-07T01:09:01;6.70;79.60
52575;DHT22;38468;48.114;-1.684;2023-12-07T01:11:04;6.70;79.40
52575;DHT22;38468;48.114;-1.684;2023-12-07T01:13:05;6.70;79.40
52575;DHT22;38468;48.114;-1.684;2023-12-07T01:15:06;6.70;79.40
52575;DHT22;38468;48.114;-1.684;2023-12-07T01:17:07;6.70;79.40
52575;DHT22;38468;48.114;-1.684;2023-12-07T01:19:07;6.70;79.30
52575;DHT22;38468;48.114;-1.684;2023-12-07T01:21:10;6.70;79.30
52575;DHT22;38468;48.114;-1.684;2023-12-07T01:23:11;6.70;79.20
52575;DHT22;38468;48.114;-1.684;2023-12-07T01:25:14;6.70;79.20
52575;DHT22;38468;48.114;-1.684;2023-12-07T01:27:20;6.80;79.10
52575;DHT22;38468;48.114;-1.684;2023-12-07T01:29:21;6.70;79.00
52575;DHT22;38468;48.114;-1.684;2023-12-07T01:31:21;6.70;79.00
52575;DHT22;38468;48.114;-1.684;2023-12-07T01:33:22;6.80;79.00
52575;DHT22;38468;48.114;-1.684;2023-12-07T01:35:22;6.80;79.00
52575;DHT22;38468;48.114;-1.684;2023-12-07T01:37:23;6.80;78.60
52575;DHT22;38468;48.114;-1.684;2023-12-07T01:39:24;6.80;78.60
52575;DHT22;38468;48.114;-1.684;2023-12-07T01:41:24;6.80;78.60
52575;DHT22;38468;48.114;-1.684;2023-12-07T01:43:25;6.80;78.60
52575;DHT22;38468;48.114;-1.684;2023-12-07T01:45:26;6.80;78.50
52575;DHT22;38468;48.114;-1.684;2023-12-07T01:47:26;6.80;78.50
52575;DHT22;38468;48.114;-1.684;2023-12-07T01:49:28;6.80;78.40
52575;DHT22;38468;48.114;-1.684;2023-12-07T01:51:29;6.80;78.30
52575;DHT22;38468;48.114;-1.684;2023-12-07T01:53:29;6.90;78.30
52575;DHT22;38468;48.114;-1.684;2023-12-07T01:55:31;6.80;77.90
52575;DHT22;38468;48.114;-1.684;2023-12-07T01:57:32;6.90;78.00
52575;DHT22;38468;48.114;-1.684;2023-12-07T01:59:33;6.90;78.10
52575;DHT22;38468;48.114;-1.684;2023-12-07T02:01:34;6.90;78.00
52575;DHT22;38468;48.114;-1.684;2023-12-07T02:03:34;6.90;77.90
52575;DHT22;38468;48.114;-1.684;2023-12-07T02:05:36;6.90;77.80
52575;DHT22;38468;48.114;-1.684;2023-12-07T02:07:37;6.80;77.50
52575;DHT22;38468;48.114;-1.684;2023-12-07T02:09:37;6.90;77.60
52575;DHT22;38468;48.114;-1.684;2023-12-07T02:11:38;6.90;77.30
52575;DHT22;38468;48.114;-1.684;2023-12-07T02:13:40;6.90;77.30
52575;DHT22;38468;48.114;-1.684;2023-12-07T02:15:41;6.80;76.90
52575;DHT22;38468;48.114;-1.684;2023-12-07T02:20:12;6.90;77.00
52575;DHT22;38468;48.114;-1.684;2023-12-07T02:22:18;6.80;76.50
52575;DHT22;38468;48.114;-1.684;2023-12-07T02:24:22;6.80;76.50
52575;DHT22;38468;48.114;-1.684;2023-12-07T02:26:34;6.80;76.80
52575;DHT22;38468;48.114;-1.684;2023-12-07T02:28:35;6.80;76.60
52575;DHT22;38468;48.114;-1.684;2023-12-07T02:30:36;6.80;76.70
52575;DHT22;38468;48.114;-1.684;2023-12-07T02:32:41;6.80;76.50
52575;DHT22;38468;48.114;-1.684;2023-12-07T02:34:42;6.80;76.50
52575;DHT22;38468;48.114;-1.684;2023-12-07T02:36:43;6.90;76.50
52575;DHT22;38468;48.114;-1.684;2023-12-07T02:38:46;6.90;76.50
52575;DHT22;38468;48.114;-1.684;2023-12-07T02:40:48;6.90;76.40
52575;DHT22;38468;48.114;-1.684;2023-12-07T02:42:49;6.90;76.10
52575;DHT22;38468;48.114;-1.684;2023-12-07T02:44:52;6.80;76.00
52575;DHT22;38468;48.114;-1.684;2023-12-07T02:46:53;6.90;76.10
52575;DHT22;38468;48.114;-1.684;2023-12-07T02:48:54;6.90;76.00
52575;DHT22;38468;48.114;-1.684;2023-12-07T02:50:55;6.90;75.90
52575;DHT22;38468;48.114;-1.684;2023-12-07T02:52:55;6.90;76.00
52575;DHT22;38468;48.114;-1.684;2023-12-07T02:54:57;6.90;75.90
52575;DHT22;38468;48.114;-1.684;2023-12-07T02:56:57;6.90;75.50
52575;DHT22;38468;48.114;-1.684;2023-12-07T02:58:58;6.90;75.60
52575;DHT22;38468;48.114;-1.684;2023-12-07T03:00:58;6.90;75.20
52575;DHT22;38468;48.114;-1.684;2023-12-07T03:02:59;7.00;75.60
52575;DHT22;38468;48.114;-1.684;2023-12-07T03:05:00;7.00;75.20
52575;DHT22;38468;48.114;-1.684;2023-12-07T03:07:00;7.00;75.10
52575;DHT22;38468;48.114;-1.684;2023-12-07T03:09:01;7.00;75.30
52575;DHT22;38468;48.114;-1.684;2023-12-07T03:11:02;7.00;75.00
52575;DHT22;38468;48.114;-1.684;2023-12-07T03:13:02;7.00;75.40
52575;DHT22;38468;48.114;-1.684;2023-12-07T03:15:03;7.10;75.50
52575;DHT22;38468;48.114;-1.684;2023-12-07T03:17:04;7.10;75.30
52575;DHT22;38468;48.114;-1.684;2023-12-07T03:19:05;7.10;75.40
52575;DHT22;38468;48.114;-1.684;2023-12-07T03:21:06;7.10;75.20
52575;DHT22;38468;48.114;-1.684;2023-12-07T03:23:06;7.10;75.40
52575;DHT22;38468;48.114;-1.684;2023-12-07T03:25:07;7.20;75.10
52575;DHT22;38468;48.114;-1.684;2023-12-07T03:27:08;7.20;75.20
52575;DHT22;38468;48.114;-1.684;2023-12-07T03:29:08;7.10;75.00
52575;DHT22;38468;48.114;-1.684;2023-12-07T03:31:09;7.10;75.00
52575;DHT22;38468;48.114;-1.684;2023-12-07T03:33:10;7.20;75.20
52575;DHT22;38468;48.114;-1.684;2023-12-07T03:35:10;7.20;75.30
52575;DHT22;38468;48.114;-1.684;2023-12-07T03:37:11;7.20;75.10
52575;DHT22;38468;48.114;-1.684;2023-12-07T03:39:14;7.20;75.30
52575;DHT22;38468;48.114;-1.684;2023-12-07T03:41:14;7.30;75.00
52575;DHT22;38468;48.114;-1.684;2023-12-07T03:43:18;7.20;74.90
52575;DHT22;38468;48.114;-1.684;2023-12-07T03:45:18;7.20;74.90
52575;DHT22;38468;48.114;-1.684;2023-12-07T03:47:19;7.20;75.00
52575;DHT22;38468;48.114;-1.684;2023-12-07T03:49:20;7.30;75.10
52575;DHT22;38468;48.114;-1.684;2023-12-07T03:51:20;7.30;75.10
52575;DHT22;38468;48.114;-1.684;2023-12-07T03:53:21;7.30;75.00
52575;DHT22;38468;48.114;-1.684;2023-12-07T03:55:21;7.30;74.90
52575;DHT22;38468;48.114;-1.684;2023-12-07T03:57:22;7.30;74.70
52575;DHT22;38468;48.114;-1.684;2023-12-07T03:59:23;7.30;74.90
52575;DHT22;38468;48.114;-1.684;2023-12-07T04:01:24;7.30;74.80
52575;DHT22;38468;48.114;-1.684;2023-12-07T04:03:25;7.30;74.90
52575;DHT22;38468;48.114;-1.684;2023-12-07T04:05:26;7.30;74.80
52575;DHT22;38468;48.114;-1.684;2023-12-07T04:07:26;7.20;74.90
52575;DHT22;38468;48.114;-1.684;2023-12-07T04:09:27;7.30;74.90
52575;DHT22;38468;48.114;-1.684;2023-12-07T04:11:28;7.40;75.00
52575;DHT22;38468;48.114;-1.684;2023-12-07T04:13:28;7.30;74.90
52575;DHT22;38468;48.114;-1.684;2023-12-07T04:15:29;7.40;74.60
52575;DHT22;38468;48.114;-1.684;2023-12-07T04:17:30;7.30;74.70
52575;DHT22;38468;48.114;-1.684;2023-12-07T04:19:30;7.30;74.70
52575;DHT22;38468;48.114;-1.684;2023-12-07T04:21:31;7.30;74.80
52575;DHT22;38468;48.114;-1.684;2023-12-07T04:23:32;7.40;74.90
52575;DHT22;38468;48.114;-1.684;2023-12-07T04:25:32;7.40;74.90
52575;DHT22;38468;48.114;-1.684;2023-12-07T04:27:33;7.40;74.90
52575;DHT22;38468;48.114;-1.684;2023-12-07T04:29:34;7.40;74.90
52575;DHT22;38468;48.114;-1.684;2023-12-07T04:31:36;7.40;74.80
52575;DHT22;38468;48.114;-1.684;2023-12-07T04:33:37;7.40;74.80
52575;DHT22;38468;48.114;-1.684;2023-12-07T04:35:37;7.40;74.80
52575;DHT22;38468;48.114;-1.684;2023-12-07T04:37:38;7.40;74.80
52575;DHT22;38468;48.114;-1.684;2023-12-07T04:39:38;7.40;74.80
52575;DHT22;38468;48.114;-1.684;2023-12-07T04:41:39;7.40;74.90
52575;DHT22;38468;48.114;-1.684;2023-12-07T04:43:40;7.40;74.90
52575;DHT22;38468;48.114;-1.684;2023-12-07T04:45:41;7.40;74.90
52575;DHT22;38468;48.114;-1.684;2023-12-07T04:47:42;7.40;74.90
52575;DHT22;38468;48.114;-1.684;2023-12-07T04:49:42;7.40;74.90
52575;DHT22;38468;48.114;-1.684;2023-12-07T04:51:43;7.40;74.90
52575;DHT22;38468;48.114;-1.684;2023-12-07T04:53:47;7.40;74.90
52575;DHT22;38468;48.114;-1.684;2023-12-07T04:55:47;7.30;75.00
52575;DHT22;38468;48.114;-1.684;2023-12-07T04:57:50;7.30;75.00
52575;DHT22;38468;48.114;-1.684;2023-12-07T04:59:51;7.20;75.20
52575;DHT22;38468;48.114;-1.684;2023-12-07T05:01:51;7.20;75.20
52575;DHT22;38468;48.114;-1.684;2023-12-07T05:03:53;7.20;75.40
52575;DHT22;38468;48.114;-1.684;2023-12-07T05:05:53;7.10;75.60
52575;DHT22;38468;48.114;-1.684;2023-12-07T05:07:54;7.10;75.80
52575;DHT22;38468;48.114;-1.684;2023-12-07T05:09:54;7.10;75.80
52575;DHT22;38468;48.114;-1.684;2023-12-07T05:11:55;7.10;75.90
52575;DHT22;38468;48.114;-1.684;2023-12-07T05:13:56;7.10;75.80
52575;DHT22;38468;48.114;-1.684;2023-12-07T05:15:59;7.00;76.10
52575;DHT22;38468;48.114;-1.684;2023-12-07T05:18:00;7.00;76.20
52575;DHT22;38468;48.114;-1.684;2023-12-07T05:20:01;7.00;76.40
52575;DHT22;38468;48.114;-1.684;2023-12-07T05:22:03;6.90;76.50
52575;DHT22;38468;48.114;-1.684;2023-12-07T05:24:03;6.90;76.50
52575;DHT22;38468;48.114;-1.684;2023-12-07T05:26:04;7.00;76.50
52575;DHT22;38468;48.114;-1.684;2023-12-07T05:28:05;7.00;76.70
52575;DHT22;38468;48.114;-1.684;2023-12-07T05:30:06;6.90;76.80
52575;DHT22;38468;48.114;-1.684;2023-12-07T05:32:07;7.00;76.80
52575;DHT22;38468;48.114;-1.684;2023-12-07T05:34:08;6.90;77.10
52575;DHT22;38468;48.114;-1.684;2023-12-07T05:36:09;6.90;77.10
52575;DHT22;38468;48.114;-1.684;2023-12-07T05:38:09;6.90;77.20
52575;DHT22;38468;48.114;-1.684;2023-12-07T05:40:10;6.90;77.20
52575;DHT22;38468;48.114;-1.684;2023-12-07T05:42:12;6.90;77.30
52575;DHT22;38468;48.114;-1.684;2023-12-07T05:44:13;6.90;77.70
52575;DHT22;38468;48.114;-1.684;2023-12-07T05:46:14;6.90;77.70
52575;DHT22;38468;48.114;-1.684;2023-12-07T05:48:16;6.90;77.70
52575;DHT22;38468;48.114;-1.684;2023-12-07T05:50:16;6.90;77.50
52575;DHT22;38468;48.114;-1.684;2023-12-07T05:52:17;6.90;77.60
52575;DHT22;38468;48.114;-1.684;2023-12-07T05:54:17;7.00;77.60
52575;DHT22;38468;48.114;-1.684;2023-12-07T05:56:19;7.00;77.60
52575;DHT22;38468;48.114;-1.684;2023-12-07T05:58:23;6.90;77.80
52575;DHT22;38468;48.114;-1.684;2023-12-07T06:00:23;6.90;77.80
52575;DHT22;38468;48.114;-1.684;2023-12-07T06:02:25;7.00;77.80
52575;DHT22;38468;48.114;-1.684;2023-12-07T06:04:25;7.00;78.00
52575;DHT22;38468;48.114;-1.684;2023-12-07T06:06:26;6.90;78.20
52575;DHT22;38468;48.114;-1.684;2023-12-07T06:08:26;6.90;78.30
52575;DHT22;38468;48.114;-1.684;2023-12-07T06:10:27;6.90;78.20
52575;DHT22;38468;48.114;-1.684;2023-12-07T06:12:28;6.90;78.30
52575;DHT22;38468;48.114;-1.684;2023-12-07T06:14:28;6.90;78.20
52575;DHT22;38468;48.114;-1.684;2023-12-07T06:16:29;7.00;78.30
52575;DHT22;38468;48.114;-1.684;2023-12-07T06:18:29;7.00;78.20
52575;DHT22;38468;48.114;-1.684;2023-12-07T06:20:30;7.00;78.40
52575;DHT22;38468;48.114;-1.684;2023-12-07T06:22:30;6.90;78.40
52575;DHT22;38468;48.114;-1.684;2023-12-07T06:24:31;6.90;78.40
52575;DHT22;38468;48.114;-1.684;2023-12-07T06:26:33;6.90;78.50
52575;DHT22;38468;48.114;-1.684;2023-12-07T06:28:33;6.90;78.60
52575;DHT22;38468;48.114;-1.684;2023-12-07T06:30:34;6.90;78.60
52575;DHT22;38468;48.114;-1.684;2023-12-07T06:32:35;6.80;78.80
52575;DHT22;38468;48.114;-1.684;2023-12-07T06:34:40;6.80;78.80
52575;DHT22;38468;48.114;-1.684;2023-12-07T06:36:41;6.90;78.60
52575;DHT22;38468;48.114;-1.684;2023-12-07T06:38:41;6.90;78.80
52575;DHT22;38468;48.114;-1.684;2023-12-07T06:40:42;6.90;78.70
52575;DHT22;38468;48.114;-1.684;2023-12-07T06:42:44;6.90;78.70
52575;DHT22;38468;48.114;-1.684;2023-12-07T06:44:54;6.90;78.80
52575;DHT22;38468;48.114;-1.684;2023-12-07T06:46:57;6.90;78.70
52575;DHT22;38468;48.114;-1.684;2023-12-07T06:48:58;6.90;78.80
52575;DHT22;38468;48.114;-1.684;2023-12-07T06:50:58;6.80;78.70
52575;DHT22;38468;48.114;-1.684;2023-12-07T06:52:59;6.90;78.70
52575;DHT22;38468;48.114;-1.684;2023-12-07T06:55:00;6.90;78.70
52575;DHT22;38468;48.114;-1.684;2023-12-07T06:57:00;6.80;78.80
52575;DHT22;38468;48.114;-1.684;2023-12-07T06:59:01;6.80;78.80
52575;DHT22;38468;48.114;-1.684;2023-12-07T07:01:02;6.80;78.80
52575;DHT22;38468;48.114;-1.684;2023-12-07T07:03:03;6.70;78.90
52575;DHT22;38468;48.114;-1.684;2023-12-07T07:05:04;6.70;78.90
52575;DHT22;38468;48.114;-1.684;2023-12-07T07:07:06;6.70;79.00
52575;DHT22;38468;48.114;-1.684;2023-12-07T07:09:07;6.70;79.10
52575;DHT22;38468;48.114;-1.684;2023-12-07T07:11:12;6.70;79.10
52575;DHT22;38468;48.114;-1.684;2023-12-07T07:13:14;6.70;79.10
52575;DHT22;38468;48.114;-1.684;2023-12-07T07:15:15;6.70;79.10
52575;DHT22;38468;48.114;-1.684;2023-12-07T07:17:16;6.70;79.10
52575;DHT22;38468;48.114;-1.684;2023-12-07T07:19:17;6.70;79.10
52575;DHT22;38468;48.114;-1.684;2023-12-07T07:21:18;6.70;79.10
52575;DHT22;38468;48.114;-1.684;2023-12-07T07:23:20;6.70;79.20
52575;DHT22;38468;48.114;-1.684;2023-12-07T07:25:20;6.70;79.10
52575;DHT22;38468;48.114;-1.684;2023-12-07T07:27:22;6.60;79.20
52575;DHT22;38468;48.114;-1.684;2023-12-07T07:29:22;6.50;79.50
52575;DHT22;38468;48.114;-1.684;2023-12-07T07:31:23;6.50;79.50
52575;DHT22;38468;48.114;-1.684;2023-12-07T07:33:24;6.50;79.50
52575;DHT22;38468;48.114;-1.684;2023-12-07T07:35:25;6.50;79.50
52575;DHT22;38468;48.114;-1.684;2023-12-07T07:37:27;6.50;79.50
52575;DHT22;38468;48.114;-1.684;2023-12-07T07:39:28;6.50;79.60
52575;DHT22;38468;48.114;-1.684;2023-12-07T07:41:29;6.50;79.70
52575;DHT22;38468;48.114;-1.684;2023-12-07T07:43:29;6.50;79.70
52575;DHT22;38468;48.114;-1.684;2023-12-07T07:45:30;6.50;79.60
52575;DHT22;38468;48.114;-1.684;2023-12-07T07:47:30;6.60;79.60
52575;DHT22;38468;48.114;-1.684;2023-12-07T07:49:31;6.60;79.60
52575;DHT22;38468;48.114;-1.684;2023-12-07T07:51:32;6.50;79.70
52575;DHT22;38468;48.114;-1.684;2023-12-07T07:53:32;6.50;79.70
52575;DHT22;38468;48.114;-1.684;2023-12-07T07:55:33;6.50;79.80
52575;DHT22;38468;48.114;-1.684;2023-12-07T07:57:34;6.50;79.80
52575;DHT22;38468;48.114;-1.684;2023-12-07T07:59:34;6.50;79.90
52575;DHT22;38468;48.114;-1.684;2023-12-07T08:01:35;6.50;79.80
52575;DHT22;38468;48.114;-1.684;2023-12-07T08:03:35;6.50;79.90
52575;DHT22;38468;48.114;-1.684;2023-12-07T08:05:36;6.60;80.00
52575;DHT22;38468;48.114;-1.684;2023-12-07T08:07:37;6.50;80.20
52575;DHT22;38468;48.114;-1.684;2023-12-07T08:09:37;6.40;80.50
52575;DHT22;38468;48.114;-1.684;2023-12-07T08:11:38;6.40;80.50
52575;DHT22;38468;48.114;-1.684;2023-12-07T08:13:38;6.40;80.50
52575;DHT22;38468;48.114;-1.684;2023-12-07T08:15:39;6.50;80.50
52575;DHT22;38468;48.114;-1.684;2023-12-07T08:17:40;6.50;80.50
52575;DHT22;38468;48.114;-1.684;2023-12-07T08:19:42;6.50;80.40
52575;DHT22;38468;48.114;-1.684;2023-12-07T08:21:43;6.50;80.60
52575;DHT22;38468;48.114;-1.684;2023-12-07T08:23:43;6.50;80.50
52575;DHT22;38468;48.114;-1.684;2023-12-07T08:25:44;6.60;80.50
52575;DHT22;38468;48.114;-1.684;2023-12-07T08:27:44;6.60;80.50
52575;DHT22;38468;48.114;-1.684;2023-12-07T08:29:46;6.60;80.50
52575;DHT22;38468;48.114;-1.684;2023-12-07T08:31:47;6.60;80.50
52575;DHT22;38468;48.114;-1.684;2023-12-07T08:33:47;6.60;80.50
52575;DHT22;38468;48.114;-1.684;2023-12-07T08:35:48;6.60;80.60
52575;DHT22;38468;48.114;-1.684;2023-12-07T08:37:54;6.60;80.50
52575;DHT22;38468;48.114;-1.684;2023-12-07T08:39:55;6.70;80.60
52575;DHT22;38468;48.114;-1.684;2023-12-07T08:41:56;6.60;80.60
52575;DHT22;38468;48.114;-1.684;2023-12-07T08:43:57;6.60;80.60
52575;DHT22;38468;48.114;-1.684;2023-12-07T08:45:57;6.70;80.60
52575;DHT22;38468;48.114;-1.684;2023-12-07T08:47:58;6.70;80.70
52575;DHT22;38468;48.114;-1.684;2023-12-07T08:49:59;6.60;80.90
52575;DHT22;38468;48.114;-1.684;2023-12-07T08:51:59;6.50;81.00
52575;DHT22;38468;48.114;-1.684;2023-12-07T08:54:00;6.50;81.10
52575;DHT22;38468;48.114;-1.684;2023-12-07T08:56:00;6.60;81.10
52575;DHT22;38468;48.114;-1.684;2023-12-07T08:58:01;6.50;81.10
52575;DHT22;38468;48.114;-1.684;2023-12-07T09:00:05;6.60;81.10
52575;DHT22;38468;48.114;-1.684;2023-12-07T09:02:06;6.60;81.10
52575;DHT22;38468;48.114;-1.684;2023-12-07T09:04:06;6.50;81.40
52575;DHT22;38468;48.114;-1.684;2023-12-07T09:06:07;6.50;81.30
52575;DHT22;38468;48.114;-1.684;2023-12-07T09:08:08;6.50;81.40
52575;DHT22;38468;48.114;-1.684;2023-12-07T09:10:10;6.50;81.60
52575;DHT22;38468;48.114;-1.684;2023-12-07T09:12:11;6.50;81.40
52575;DHT22;38468;48.114;-1.684;2023-12-07T09:14:11;6.50;81.50
52575;DHT22;38468;48.114;-1.684;2023-12-07T09:16:12;6.50;81.50
52575;DHT22;38468;48.114;-1.684;2023-12-07T09:18:13;6.60;81.40
52575;DHT22;38468;48.114;-1.684;2023-12-07T09:20:14;6.60;81.50
52575;DHT22;38468;48.114;-1.684;2023-12-07T09:22:14;6.60;81.50
52575;DHT22;38468;48.114;-1.684;2023-12-07T09:24:16;6.60;81.60
52575;DHT22;38468;48.114;-1.684;2023-12-07T09:26:17;6.60;81.60
52575;DHT22;38468;48.114;-1.684;2023-12-07T09:28:17;6.60;81.60
52575;DHT22;38468;48.114;-1.684;2023-12-07T09:30:18;6.60;81.50
52575;DHT22;38468;48.114;-1.684;2023-12-07T09:32:19;6.70;81.60
52575;DHT22;38468;48.114;-1.684;2023-12-07T09:34:19;6.70;81.60
52575;DHT22;38468;48.114;-1.684;2023-12-07T09:36:20;6.70;81.60
52575;DHT22;38468;48.114;-1.684;2023-12-07T09:38:24;6.70;81.60
52575;DHT22;38468;48.114;-1.684;2023-12-07T09:40:25;6.70;81.60
52575;DHT22;38468;48.114;-1.684;2023-12-07T09:42:26;6.70;81.70
52575;DHT22;38468;48.114;-1.684;2023-12-07T09:44:27;6.70;81.70
52575;DHT22;38468;48.114;-1.684;2023-12-07T09:46:29;6.70;81.70
52575;DHT22;38468;48.114;-1.684;2023-12-07T09:48:30;6.70;81.60
52575;DHT22;38468;48.114;-1.684;2023-12-07T09:50:31;6.80;81.80
52575;DHT22;38468;48.114;-1.684;2023-12-07T09:52:32;6.70;81.90
52575;DHT22;38468;48.114;-1.684;2023-12-07T09:54:32;6.60;81.90
52575;DHT22;38468;48.114;-1.684;2023-12-07T09:56:35;6.70;81.90
52575;DHT22;38468;48.114;-1.684;2023-12-07T09:58:36;6.70;81.90
52575;DHT22;38468;48.114;-1.684;2023-12-07T10:00:37;6.70;81.90
52575;DHT22;38468;48.114;-1.684;2023-12-07T10:02:37;6.70;81.90
52575;DHT22;38468;48.114;-1.684;2023-12-07T10:04:39;6.50;82.20
52575;DHT22;38468;48.114;-1.684;2023-12-07T10:06:43;6.40;82.30
52575;DHT22;38468;48.114;-1.684;2023-12-07T10:08:50;6.40;82.30
52575;DHT22;38468;48.114;-1.684;2023-12-07T10:11:10;6.40;82.40
52575;DHT22;38468;48.114;-1.684;2023-12-07T10:13:12;6.50;82.40
52575;DHT22;38468;48.114;-1.684;2023-12-07T10:15:14;6.40;82.50
52575;DHT22;38468;48.114;-1.684;2023-12-07T10:17:15;6.40;82.60
52575;DHT22;38468;48.114;-1.684;2023-12-07T10:19:16;6.40;82.60
52575;DHT22;38468;48.114;-1.684;2023-12-07T10:21:34;6.50;82.50
52575;DHT22;38468;48.114;-1.684;2023-12-07T10:23:38;6.60;82.50
52575;DHT22;38468;48.114;-1.684;2023-12-07T10:25:40;6.60;82.50
52575;DHT22;38468;48.114;-1.684;2023-12-07T10:27:42;6.60;82.50
52575;DHT22;38468;48.114;-1.684;2023-12-07T10:29:45;6.50;82.60
52575;DHT22;38468;48.114;-1.684;2023-12-07T10:31:46;6.50;82.70
52575;DHT22;38468;48.114;-1.684;2023-12-07T10:33:50;6.50;82.80
52575;DHT22;38468;48.114;-1.684;2023-12-07T10:35:50;6.50;82.80
52575;DHT22;38468;48.114;-1.684;2023-12-07T10:37:51;6.50;82.90
52575;DHT22;38468;48.114;-1.684;2023-12-07T10:39:52;6.60;83.00
52575;DHT22;38468;48.114;-1.684;2023-12-07T10:41:54;6.60;83.10
52575;DHT22;38468;48.114;-1.684;2023-12-07T10:44:00;6.50;83.30
52575;DHT22;38468;48.114;-1.684;2023-12-07T10:46:02;6.50;83.30
52575;DHT22;38468;48.114;-1.684;2023-12-07T10:48:08;6.50;83.50
52575;DHT22;38468;48.114;-1.684;2023-12-07T10:50:09;6.50;83.60
52575;DHT22;38468;48.114;-1.684;2023-12-07T10:52:15;6.50;83.60
52575;DHT22;38468;48.114;-1.684;2023-12-07T10:54:18;6.50;83.70
52575;DHT22;38468;48.114;-1.684;2023-12-07T10:56:29;6.50;83.70
52575;DHT22;38468;48.114;-1.684;2023-12-07T10:58:34;6.60;83.70
52575;DHT22;38468;48.114;-1.684;2023-12-07T11:00:36;6.60;83.80
52575;DHT22;38468;48.114;-1.684;2023-12-07T11:02:38;6.50;83.80
52575;DHT22;38468;48.114;-1.684;2023-12-07T11:04:41;6.60;83.90
52575;DHT22;38468;48.114;-1.684;2023-12-07T11:06:45;6.60;83.80
52575;DHT22;38468;48.114;-1.684;2023-12-07T11:08:55;6.70;83.80
52575;DHT22;38468;48.114;-1.684;2023-12-07T11:11:15;6.70;83.80
52575;DHT22;38468;48.114;-1.684;2023-12-07T11:13:22;6.70;83.80
52575;DHT22;38468;48.114;-1.684;2023-12-07T11:15:24;6.70;83.80
52575;DHT22;38468;48.114;-1.684;2023-12-07T11:17:26;6.70;83.90
52575;DHT22;38468;48.114;-1.684;2023-12-07T11:21:34;6.70;83.80
52575;DHT22;38468;48.114;-1.684;2023-12-07T11:23:34;6.90;83.70
52575;DHT22;38468;48.114;-1.684;2023-12-07T11:25:37;6.90;83.70
52575;DHT22;38468;48.114;-1.684;2023-12-07T11:27:38;6.90;83.60
52575;DHT22;38468;48.114;-1.684;2023-12-07T11:29:40;6.90;83.60
52575;DHT22;38468;48.114;-1.684;2023-12-07T11:31:41;6.90;83.60
52575;DHT22;38468;48.114;-1.684;2023-12-07T11:33:41;6.90;83.50
52575;DHT22;38468;48.114;-1.684;2023-12-07T11:36:12;6.90;83.50
52575;DHT22;38468;48.114;-1.684;2023-12-07T11:38:15;7.00;83.40
52575;DHT22;38468;48.114;-1.684;2023-12-07T11:40:19;7.00;83.50
52575;DHT22;38468;48.114;-1.684;2023-12-07T11:42:20;6.90;83.40
52575;DHT22;38468;48.114;-1.684;2023-12-07T11:44:24;7.00;83.50
52575;DHT22;38468;48.114;-1.684;2023-12-07T11:46:33;7.10;83.50
52575;DHT22;38468;48.114;-1.684;2023-12-07T11:48:35;7.10;83.40
52575;DHT22;38468;48.114;-1.684;2023-12-07T11:50:35;7.10;83.40
52575;DHT22;38468;48.114;-1.684;2023-12-07T11:52:36;7.10;83.30
52575;DHT22;38468;48.114;-1.684;2023-12-07T11:54:36;7.20;83.30
52575;DHT22;38468;48.114;-1.684;2023-12-07T11:56:37;7.10;83.30
52575;DHT22;38468;48.114;-1.684;2023-12-07T11:58:38;7.20;83.30
52575;DHT22;38468;48.114;-1.684;2023-12-07T12:00:39;7.20;83.30
52575;DHT22;38468;48.114;-1.684;2023-12-07T12:02:40;7.20;83.30
52575;DHT22;38468;48.114;-1.684;2023-12-07T12:04:41;7.10;83.30
52575;DHT22;38468;48.114;-1.684;2023-12-07T12:06:45;7.10;83.30
52575;DHT22;38468;48.114;-1.684;2023-12-07T12:08:46;7.20;83.30
52575;DHT22;38468;48.114;-1.684;2023-12-07T12:10:48;7.30;83.20
52575;DHT22;38468;48.114;-1.684;2023-12-07T12:12:51;7.30;83.20
52575;DHT22;38468;48.114;-1.684;2023-12-07T12:14:51;7.40;83.10
52575;DHT22;38468;48.114;-1.684;2023-12-07T12:16:52;7.40;83.00
52575;DHT22;38468;48.114;-1.684;2023-12-07T12:18:53;7.40;83.00
52575;DHT22;38468;48.114;-1.684;2023-12-07T12:20:54;7.40;83.00
52575;DHT22;38468;48.114;-1.684;2023-12-07T12:22:55;7.40;82.90
52575;DHT22;38468;48.114;-1.684;2023-12-07T12:24:56;7.40;82.90
52575;DHT22;38468;48.114;-1.684;2023-12-07T12:26:56;7.40;82.90
52575;DHT22;38468;48.114;-1.684;2023-12-07T12:28:57;7.40;82.90
52575;DHT22;38468;48.114;-1.684;2023-12-07T12:30:58;7.30;82.80
52575;DHT22;38468;48.114;-1.684;2023-12-07T12:32:59;7.30;82.80
52575;DHT22;38468;48.114;-1.684;2023-12-07T12:35:01;7.30;82.90
52575;DHT22;38468;48.114;-1.684;2023-12-07T12:37:04;7.30;82.90
52575;DHT22;38468;48.114;-1.684;2023-12-07T12:39:09;7.30;83.00
52575;DHT22;38468;48.114;-1.684;2023-12-07T12:41:11;7.30;82.90
52575;DHT22;38468;48.114;-1.684;2023-12-07T12:43:14;7.30;82.80
52575;DHT22;38468;48.114;-1.684;2023-12-07T12:45:18;7.30;82.80
52575;DHT22;38468;48.114;-1.684;2023-12-07T12:47:23;7.30;82.70
52575;DHT22;38468;48.114;-1.684;2023-12-07T12:49:38;7.30;82.80
52575;DHT22;38468;48.114;-1.684;2023-12-07T12:51:45;7.30;82.80